createdAt,value
2018-06-27T00:01:30.928Z,39.85
2018-06-27T00:03:59.817Z,40.20
2018-06-27T00:06:28.508Z,39.61
2018-06-27T00:08:57.296Z,39.82
2018-06-27T00:11:26.006Z,40.35
2018-06-27T00:13:54.802Z,40.22
2018-06-27T00:16:23.466Z,40.26
2018-06-27T00:18:52.252Z,40.21
2018-06-27T00:21:21.148Z,39.57
2018-06-27T00:23:49.908Z,40.25
2018-06-27T00:26:18.733Z,39.43
2018-06-27T00:28:47.569Z,40.22
2018-06-27T00:31:16.301Z,39.91
2018-06-27T00:33:45.050Z,40.27
2018-06-27T00:36:13.646Z,40.29
2018-06-27T00:38:42.420Z,39.42
2018-06-27T00:41:11.224Z,40.27
2018-06-27T00:43:39.865Z,39.65
2018-06-27T00:46:08.537Z,40.19
2018-06-27T00:48:37.362Z,40.33
2018-06-27T00:51:06.288Z,40.32
2018-06-27T00:53:40.148Z,39.73
2018-06-27T00:56:08.938Z,39.66
2018-06-27T00:58:37.633Z,40.25
2018-06-27T01:01:06.292Z,39.75
2018-06-27T01:03:35.315Z,40.37
2018-06-27T01:06:04.123Z,40.25
2018-06-27T01:08:32.762Z,40.30
2018-06-27T01:11:01.533Z,39.67
2018-06-27T01:13:30.212Z,40.40
2018-06-27T01:15:59.021Z,39.66
2018-06-27T01:18:27.796Z,40.29
2018-06-27T01:20:56.537Z,39.68
2018-06-27T01:23:25.458Z,39.68
2018-06-27T01:25:54.264Z,39.62
2018-06-27T01:28:23.084Z,40.24
2018-06-27T01:30:51.816Z,39.66
2018-06-27T01:33:20.665Z,40.36
2018-06-27T01:35:49.445Z,40.34
2018-06-27T01:38:18.202Z,39.69
2018-06-27T01:40:46.968Z,40.10
2018-06-27T01:43:15.784Z,39.83
2018-06-27T01:45:44.518Z,39.72
2018-06-27T01:48:13.233Z,40.35
2018-06-27T01:50:42.109Z,40.44
2018-06-27T01:53:10.830Z,40.33
2018-06-27T01:55:39.563Z,39.81
2018-06-27T01:58:08.254Z,39.93
2018-06-27T02:00:36.931Z,40.25
2018-06-27T02:03:05.873Z,39.77
2018-06-27T02:05:34.552Z,39.74
2018-06-27T02:08:03.321Z,39.87
2018-06-27T02:10:32.180Z,39.73
2018-06-27T02:13:00.850Z,39.95
2018-06-27T02:15:29.577Z,39.88
2018-06-27T02:17:58.335Z,39.93
2018-06-27T02:20:27.080Z,40.01
2018-06-27T02:23:01.590Z,40.43
2018-06-27T02:25:30.343Z,40.47
2018-06-27T02:27:59.329Z,40.47
2018-06-27T02:30:28.028Z,39.89
2018-06-27T02:32:56.821Z,39.83
2018-06-27T02:35:25.592Z,39.94
2018-06-27T02:37:54.356Z,40.54
2018-06-27T02:40:23.208Z,39.91
2018-06-27T02:42:52.111Z,40.21
2018-06-27T02:45:20.842Z,40.39
2018-06-27T02:47:49.652Z,40.65
2018-06-27T02:50:18.701Z,39.91
2018-06-27T02:52:47.302Z,40.03
2018-06-27T02:55:16.015Z,40.08
2018-06-27T02:57:44.843Z,40.58
2018-06-27T03:00:16.504Z,40.71
2018-06-27T03:02:46.706Z,40.72
2018-06-27T03:05:15.431Z,40.12
2018-06-27T03:07:45.118Z,40.17
2018-06-27T03:10:13.946Z,40.35
2018-06-27T03:12:42.684Z,40.76
2018-06-27T03:15:11.310Z,40.22
2018-06-27T03:17:40.122Z,40.64
2018-06-27T03:20:08.959Z,40.58
2018-06-27T03:22:37.815Z,40.63
2018-06-27T03:25:06.565Z,40.74
2018-06-27T03:27:35.510Z,39.98
2018-06-27T03:30:04.369Z,40.30
2018-06-27T03:32:33.241Z,40.75
2018-06-27T03:35:02.902Z,40.34
2018-06-27T03:37:31.772Z,40.14
2018-06-27T03:40:00.643Z,40.24
2018-06-27T03:42:29.297Z,40.06
2018-06-27T03:44:58.079Z,40.79
2018-06-27T03:47:26.743Z,40.88
2018-06-27T03:49:55.303Z,40.82
2018-06-27T03:52:24.252Z,40.84
2018-06-27T03:54:52.854Z,40.75
2018-06-27T03:57:21.439Z,40.18
2018-06-27T03:59:50.017Z,40.84
2018-06-27T04:02:18.575Z,40.95
2018-06-27T04:04:47.185Z,40.21
2018-06-27T04:07:15.749Z,40.27
2018-06-27T04:09:44.279Z,40.23
2018-06-27T04:12:12.829Z,40.93
2018-06-27T04:14:41.583Z,40.45
2018-06-27T04:17:10.084Z,40.64
2018-06-27T04:19:38.629Z,41.02
2018-06-27T04:22:07.191Z,40.67
2018-06-27T04:24:35.743Z,40.98
2018-06-27T04:27:04.316Z,41.07
2018-06-27T04:29:32.853Z,40.48
2018-06-27T04:32:01.428Z,40.50
2018-06-27T04:34:36.322Z,40.59
2018-06-27T04:37:04.921Z,40.59
2018-06-27T04:39:33.573Z,40.94
2018-06-27T04:42:02.182Z,41.09
2018-06-27T04:44:30.717Z,41.06
2018-06-27T04:46:59.285Z,41.30
2018-06-27T04:49:28.008Z,41.11
2018-06-27T04:51:56.975Z,40.57
2018-06-27T04:54:26.025Z,40.76
2018-06-27T04:56:55.613Z,41.27
2018-06-27T04:59:24.349Z,40.62
2018-06-27T05:01:53.838Z,40.81
2018-06-27T05:04:22.689Z,40.70
2018-06-27T05:06:51.460Z,40.94
2018-06-27T05:09:20.213Z,41.33
2018-06-27T05:11:49.297Z,41.48
2018-06-27T05:14:18.035Z,40.68
2018-06-27T05:16:47.429Z,40.68
2018-06-27T05:19:15.929Z,41.67
2018-06-27T05:21:44.780Z,40.71
2018-06-27T05:24:13.374Z,41.28
2018-06-27T05:26:41.961Z,40.81
2018-06-27T05:29:10.601Z,40.61
2018-06-27T05:31:39.129Z,41.23
2018-06-27T05:34:07.875Z,41.34
2018-06-27T05:36:36.477Z,40.59
2018-06-27T05:39:08.341Z,40.60
2018-06-27T05:41:37.033Z,40.52
2018-06-27T05:44:05.718Z,40.56
2018-06-27T05:46:34.453Z,41.15
2018-06-27T05:49:03.130Z,40.54
2018-06-27T05:51:31.848Z,40.51
2018-06-27T05:54:00.532Z,40.58
2018-06-27T05:56:29.185Z,41.17
2018-06-27T05:58:57.925Z,41.17
2018-06-27T06:01:26.588Z,40.58
2018-06-27T06:03:55.369Z,41.16
2018-06-27T06:06:24.062Z,40.44
2018-06-27T06:08:52.814Z,41.02
2018-06-27T06:11:21.577Z,41.00
2018-06-27T06:13:50.236Z,40.41
2018-06-27T06:16:18.952Z,40.56
2018-06-27T06:18:47.696Z,40.93
2018-06-27T06:21:16.385Z,41.01
2018-06-27T06:23:45.069Z,40.35
2018-06-27T06:26:13.715Z,40.86
2018-06-27T06:28:42.825Z,40.66
2018-06-27T06:31:11.460Z,40.81
2018-06-27T06:33:40.101Z,40.36
2018-06-27T06:36:08.807Z,40.33
2018-06-27T06:38:37.419Z,40.12
2018-06-27T06:41:06.456Z,40.37
2018-06-27T06:43:35.300Z,40.27
2018-06-27T06:46:03.949Z,40.65
2018-06-27T06:48:32.706Z,40.72
2018-06-27T06:51:01.448Z,40.41
2018-06-27T06:53:30.188Z,40.01
2018-06-27T06:55:58.905Z,40.64
2018-06-27T06:58:27.546Z,40.66
2018-06-27T07:00:56.323Z,39.98
2018-06-27T07:03:25.114Z,40.21
2018-06-27T07:05:53.909Z,40.18
2018-06-27T07:08:22.706Z,40.12
2018-06-27T07:10:51.587Z,40.83
2018-06-27T07:13:20.408Z,40.52
2018-06-27T07:15:49.283Z,40.08
2018-06-27T07:18:17.980Z,40.13
2018-06-27T07:20:46.618Z,40.65
2018-06-27T07:23:15.292Z,40.75
2018-06-27T07:25:43.981Z,39.87
2018-06-27T07:28:13.037Z,40.18
2018-06-27T07:30:41.906Z,40.33
2018-06-27T07:33:10.890Z,40.20
2018-06-27T07:35:39.797Z,40.05
2018-06-27T07:38:08.711Z,40.04
2018-06-27T07:40:37.807Z,39.69
2018-06-27T07:43:06.681Z,39.92
2018-06-27T07:45:35.414Z,39.28
2018-06-27T07:48:04.215Z,39.48
2018-06-27T07:50:33.090Z,39.69
2018-06-27T07:53:01.910Z,39.33
2018-06-27T07:55:30.878Z,39.57
2018-06-27T07:57:59.889Z,39.62
2018-06-27T08:00:28.644Z,39.58
2018-06-27T08:02:57.317Z,39.98
2018-06-27T08:05:26.029Z,39.58
2018-06-27T08:07:54.754Z,40.39
2018-06-27T08:10:23.358Z,40.12
2018-06-27T08:12:51.940Z,40.50
2018-06-27T08:15:20.641Z,40.30
2018-06-27T08:17:49.351Z,39.91
2018-06-27T08:20:18.013Z,39.89
2018-06-27T08:22:46.740Z,39.98
2018-06-27T08:25:15.516Z,40.47
2018-06-27T08:27:44.210Z,40.43
2018-06-27T08:30:12.840Z,40.56
2018-06-27T08:32:41.528Z,39.93
2018-06-27T08:35:10.292Z,39.89
2018-06-27T08:37:38.955Z,39.84
2018-06-27T08:40:07.669Z,40.13
2018-06-27T08:42:36.441Z,39.97
2018-06-27T08:45:05.205Z,39.68
2018-06-27T08:47:34.029Z,40.15
2018-06-27T08:50:02.762Z,40.20
2018-06-27T08:52:31.417Z,39.82
2018-06-27T08:55:00.083Z,40.02
2018-06-27T08:57:28.789Z,40.43
2018-06-27T08:59:57.621Z,40.43
2018-06-27T09:02:26.406Z,39.87
2018-06-27T09:04:55.237Z,39.80
2018-06-27T09:07:23.917Z,39.55
2018-06-27T09:09:52.531Z,39.91
2018-06-27T09:12:21.330Z,39.28
2018-06-27T09:14:49.909Z,39.79
2018-06-27T09:17:18.714Z,39.76
2018-06-27T09:19:47.406Z,39.54
2018-06-27T09:22:16.124Z,38.98
2018-06-27T09:24:44.761Z,39.66
2018-06-27T09:27:13.520Z,38.80
2018-06-27T09:29:42.307Z,39.57
2018-06-27T09:32:10.938Z,38.88
2018-06-27T09:34:39.861Z,39.36
2018-06-27T09:37:08.810Z,39.35
2018-06-27T09:39:37.520Z,38.60
2018-06-27T09:42:06.238Z,39.07
2018-06-27T09:44:34.876Z,38.79
2018-06-27T09:47:03.590Z,39.28
2018-06-27T09:49:32.185Z,39.32
2018-06-27T09:52:00.870Z,38.76
2018-06-27T09:54:29.617Z,38.98
2018-06-27T09:56:58.251Z,38.54
2018-06-27T09:59:26.937Z,39.10
2018-06-27T10:01:55.610Z,38.47
2018-06-27T10:04:24.214Z,38.52
2018-06-27T10:06:52.792Z,39.21
2018-06-27T10:09:21.530Z,38.84
2018-06-27T10:11:50.146Z,39.05
2018-06-27T10:14:18.890Z,38.58
2018-06-27T10:16:47.818Z,39.16
2018-06-27T10:19:16.449Z,38.47
2018-06-27T10:21:45.109Z,38.51
2018-06-27T10:24:13.933Z,38.81
2018-06-27T10:26:42.571Z,38.44
2018-06-27T10:29:11.247Z,38.90
2018-06-27T10:31:40.063Z,39.00
2018-06-27T10:34:08.859Z,38.66
2018-06-27T10:36:37.490Z,38.40
2018-06-27T10:39:09.022Z,38.41
2018-06-27T10:41:37.709Z,38.16
2018-06-27T10:44:06.401Z,38.86
2018-06-27T10:46:35.472Z,38.67
2018-06-27T10:49:04.732Z,38.19
2018-06-27T10:51:33.659Z,38.65
2018-06-27T10:54:02.717Z,38.52
2018-06-27T10:56:31.801Z,38.07
2018-06-27T10:59:00.683Z,38.48
2018-06-27T11:01:29.624Z,38.24
2018-06-27T11:03:58.456Z,38.82
2018-06-27T11:06:27.361Z,38.22
2018-06-27T11:08:56.312Z,38.51
2018-06-27T11:11:24.967Z,38.62
2018-06-27T11:13:53.612Z,38.53
2018-06-27T11:16:22.297Z,38.77
2018-06-27T11:18:51.024Z,38.29
2018-06-27T11:21:19.893Z,38.03
2018-06-27T11:23:48.597Z,38.47
2018-06-27T11:26:17.252Z,38.15
2018-06-27T11:28:45.963Z,37.72
2018-06-27T11:31:14.683Z,37.58
2018-06-27T11:33:43.362Z,37.78
2018-06-27T11:36:12.190Z,37.90
2018-06-27T11:38:41.051Z,37.77
2018-06-27T11:41:09.783Z,37.70
2018-06-27T11:43:38.622Z,38.51
2018-06-27T11:46:08.160Z,38.42
2018-06-27T11:48:37.170Z,39.00
2018-06-27T11:51:06.004Z,38.73
2018-06-27T11:53:35.090Z,38.34
2018-06-27T11:56:04.143Z,38.70
2018-06-27T11:58:33.042Z,38.56
2018-06-27T12:01:02.589Z,38.40
2018-06-27T12:03:31.406Z,39.17
2018-06-27T12:06:00.350Z,39.17
2018-06-27T12:08:29.530Z,39.05
2018-06-27T12:10:58.401Z,38.84
2018-06-27T12:13:27.322Z,38.53
2018-06-27T12:15:56.164Z,39.09
2018-06-27T12:18:24.981Z,39.34
2018-06-27T12:20:53.691Z,39.32
2018-06-27T12:23:22.606Z,38.56
2018-06-27T12:25:51.509Z,38.52
2018-06-27T12:28:20.270Z,38.73
2018-06-27T12:30:49.043Z,39.31
2018-06-27T12:33:17.794Z,38.54
2018-06-27T12:35:46.563Z,38.60
2018-06-27T12:38:15.349Z,38.92
2018-06-27T12:40:44.159Z,38.78
2018-06-27T12:43:12.985Z,38.77
2018-06-27T12:45:41.832Z,38.85
2018-06-27T12:48:10.508Z,38.73
2018-06-27T12:50:39.557Z,39.26
2018-06-27T12:53:08.401Z,38.60
2018-06-27T12:55:37.137Z,38.49
2018-06-27T12:58:06.020Z,38.64
2018-06-27T13:00:34.863Z,38.45
2018-06-27T13:03:03.766Z,38.51
2018-06-27T13:05:32.509Z,39.12
2018-06-27T13:08:01.379Z,38.42
2018-06-27T13:10:30.165Z,38.60
2018-06-27T13:12:59.031Z,39.28
2018-06-27T13:15:27.769Z,39.19
2018-06-27T13:17:56.453Z,39.25
2018-06-27T13:20:25.172Z,39.38
2018-06-27T13:22:53.828Z,38.67
2018-06-27T13:25:22.505Z,38.55
2018-06-27T13:27:51.151Z,38.54
2018-06-27T13:30:19.806Z,38.98
2018-06-27T13:32:48.477Z,39.03
2018-06-27T13:35:17.150Z,38.40
2018-06-27T13:37:45.831Z,38.76
2018-06-27T13:40:14.426Z,38.30
2018-06-27T13:42:43.106Z,38.45
2018-06-27T13:45:12.119Z,38.27
2018-06-27T13:47:40.753Z,38.91
2018-06-27T13:50:09.487Z,38.65
2018-06-27T13:52:38.280Z,39.07
2018-06-27T13:55:07.004Z,38.45
2018-06-27T13:57:35.691Z,38.89
2018-06-27T14:00:04.825Z,38.89
2018-06-27T14:02:33.524Z,39.04
2018-06-27T14:05:02.259Z,39.05
2018-06-27T14:07:30.928Z,38.28
2018-06-27T14:09:59.458Z,38.67
2018-06-27T14:12:27.997Z,38.28
2018-06-27T14:14:56.525Z,38.47
2018-06-27T14:17:25.046Z,39.04
2018-06-27T14:19:53.617Z,38.32
2018-06-27T14:22:22.140Z,38.35
2018-06-27T14:24:50.685Z,39.10
2018-06-27T14:27:19.287Z,38.37
2018-06-27T14:29:47.853Z,38.32
2018-06-27T14:32:16.392Z,38.95
2018-06-27T14:34:44.913Z,38.34
2018-06-27T14:37:13.481Z,39.11
2018-06-27T14:39:42.016Z,39.12
2018-06-27T14:42:10.540Z,38.94
2018-06-27T14:44:39.145Z,38.33
2018-06-27T14:47:07.704Z,39.10
2018-06-27T14:49:36.222Z,39.16
2018-06-27T14:52:04.860Z,38.44
2018-06-27T14:54:33.377Z,38.88
2018-06-27T14:57:01.904Z,38.41
2018-06-27T14:59:30.500Z,39.08
2018-06-27T15:01:59.068Z,38.87
2018-06-27T15:04:27.590Z,38.25
2018-06-27T15:06:56.116Z,38.78
2018-06-27T15:09:24.649Z,38.96
2018-06-27T15:11:53.181Z,38.86
2018-06-27T15:14:21.725Z,38.14
2018-06-27T15:16:50.332Z,38.67
2018-06-27T15:19:18.834Z,38.73
2018-06-27T15:21:47.441Z,38.26
2018-06-27T15:24:16.000Z,38.73
2018-06-27T15:26:44.571Z,38.08
2018-06-27T15:29:13.112Z,38.69
2018-06-27T15:31:41.645Z,38.63
2018-06-27T15:34:10.261Z,38.08
2018-06-27T15:36:38.708Z,38.50
2018-06-27T15:39:08.639Z,38.20
2018-06-27T15:41:37.262Z,38.80
2018-06-27T15:44:06.305Z,38.10
2018-06-27T15:46:34.921Z,38.73
2018-06-27T15:49:03.518Z,38.39
2018-06-27T15:51:32.075Z,38.96
2018-06-27T15:54:00.619Z,38.32
2018-06-27T15:56:29.137Z,38.92
2018-06-27T15:58:57.683Z,38.91
2018-06-27T16:01:26.185Z,38.99
2018-06-27T16:03:54.736Z,38.77
2018-06-27T16:06:23.331Z,38.84
2018-06-27T16:08:51.824Z,38.10
2018-06-27T16:11:20.488Z,38.96
2018-06-27T16:13:48.954Z,38.22
2018-06-27T16:16:17.486Z,38.71
2018-06-27T16:18:46.050Z,38.54
2018-06-27T16:21:14.637Z,38.68
2018-06-27T16:23:43.149Z,38.38
2018-06-27T16:26:11.661Z,38.89
2018-06-27T16:28:40.245Z,38.72
2018-06-27T16:31:08.769Z,38.80
2018-06-27T16:33:37.578Z,38.62
2018-06-27T16:36:06.234Z,38.77
2018-06-27T16:38:34.765Z,38.43
2018-06-27T16:41:03.337Z,38.71
2018-06-27T16:43:32.059Z,38.08
2018-06-27T16:46:00.460Z,38.81
2018-06-27T16:48:28.987Z,38.39
2018-06-27T16:50:57.623Z,38.32
2018-06-27T16:53:26.055Z,38.85
2018-06-27T16:55:54.589Z,38.77
2018-06-27T16:58:23.141Z,38.96
2018-06-27T17:00:51.697Z,38.80
2018-06-27T17:03:20.208Z,38.77
2018-06-27T17:05:48.790Z,38.24
2018-06-27T17:08:17.296Z,38.69
2018-06-27T17:10:45.848Z,38.42
2018-06-27T17:13:14.402Z,38.64
2018-06-27T17:15:43.294Z,38.65
2018-06-27T17:18:11.853Z,38.70
2018-06-27T17:20:40.469Z,38.20
2018-06-27T17:23:08.981Z,38.16
2018-06-27T17:25:37.516Z,38.22
2018-06-27T17:28:06.772Z,38.74
2018-06-27T17:30:35.301Z,38.02
2018-06-27T17:33:03.816Z,38.82
2018-06-27T17:35:32.422Z,38.61
2018-06-27T17:38:00.987Z,38.13
2018-06-27T17:40:29.514Z,38.20
2018-06-27T17:42:58.095Z,38.25
2018-06-27T17:45:26.665Z,38.85
2018-06-27T17:47:55.761Z,38.57
2018-06-27T17:50:24.508Z,38.83
2018-06-27T17:52:53.177Z,38.21
2018-06-27T17:55:22.042Z,39.03
2018-06-27T17:57:50.797Z,38.46
2018-06-27T18:00:19.458Z,38.73
2018-06-27T18:02:48.094Z,38.68
2018-06-27T18:05:16.978Z,38.33
2018-06-27T18:07:45.768Z,38.20
2018-06-27T18:10:14.519Z,38.28
2018-06-27T18:12:43.292Z,39.01
2018-06-27T18:15:12.124Z,38.47
2018-06-27T18:17:40.888Z,39.11
2018-06-27T18:20:09.653Z,38.62
2018-06-27T18:22:38.379Z,38.28
2018-06-27T18:25:07.185Z,39.03
2018-06-27T18:27:36.101Z,39.13
2018-06-27T18:30:05.273Z,39.12
2018-06-27T18:32:34.168Z,38.45
2018-06-27T18:35:02.840Z,38.49
2018-06-27T18:37:31.514Z,38.85
2018-06-27T18:40:00.137Z,39.07
2018-06-27T18:42:28.890Z,38.99
2018-06-27T18:44:57.637Z,39.14
2018-06-27T18:47:26.340Z,39.09
2018-06-27T18:49:55.001Z,39.19
2018-06-27T18:52:23.741Z,39.17
2018-06-27T18:54:52.637Z,39.28
2018-06-27T18:57:21.511Z,38.97
2018-06-27T18:59:50.199Z,38.46
2018-06-27T19:02:19.041Z,39.12
2018-06-27T19:04:47.832Z,39.04
2018-06-27T19:07:16.697Z,38.50
2018-06-27T19:09:45.314Z,38.62
2018-06-27T19:12:14.094Z,39.10
2018-06-27T19:14:42.722Z,38.77
2018-06-27T19:17:11.345Z,39.23
2018-06-27T19:19:40.060Z,38.58
2018-06-27T19:22:08.623Z,38.53
2018-06-27T19:24:38.404Z,38.49
2018-06-27T19:27:07.165Z,39.00
2018-06-27T19:29:35.970Z,39.13
2018-06-27T19:32:04.765Z,38.83
2018-06-27T19:34:33.568Z,38.62
2018-06-27T19:37:02.307Z,39.19
2018-06-27T19:39:37.457Z,38.68
2018-06-27T19:41:59.650Z,39.25
2018-06-27T19:44:28.291Z,38.52
2018-06-27T19:46:57.695Z,39.08
2018-06-27T19:49:26.369Z,38.89
2018-06-27T19:51:55.842Z,38.71
2018-06-27T19:54:24.480Z,39.18
2018-06-27T19:56:53.412Z,38.66
2018-06-27T19:59:22.027Z,39.35
2018-06-27T20:01:50.669Z,39.19
2018-06-27T20:04:19.476Z,39.43
2018-06-27T20:06:48.198Z,38.84
2018-06-27T20:09:16.790Z,38.84
2018-06-27T20:11:45.620Z,38.92
2018-06-27T20:14:14.573Z,38.92
2018-06-27T20:16:43.355Z,38.86
2018-06-27T20:19:12.104Z,38.85
2018-06-27T20:21:40.780Z,38.75
2018-06-27T20:24:09.491Z,39.51
2018-06-27T20:26:38.373Z,39.00
2018-06-27T20:29:07.299Z,38.86
2018-06-27T20:31:35.974Z,38.89
2018-06-27T20:34:05.526Z,39.36
2018-06-27T20:36:34.166Z,39.05
2018-06-27T20:39:03.028Z,39.50
2018-06-27T20:41:31.733Z,39.49
2018-06-27T20:44:00.340Z,39.36
2018-06-27T20:46:28.999Z,39.00
2018-06-27T20:48:57.672Z,39.07
2018-06-27T20:51:26.397Z,39.44
2018-06-27T20:53:55.006Z,39.05
2018-06-27T20:56:23.767Z,39.70
2018-06-27T20:58:52.585Z,38.98
2018-06-27T21:01:21.184Z,39.45
2018-06-27T21:03:50.116Z,39.69
2018-06-27T21:06:18.803Z,39.09
2018-06-27T21:08:47.920Z,39.78
2018-06-27T21:11:16.620Z,39.42
2018-06-27T21:13:45.428Z,39.03
2018-06-27T21:16:14.113Z,39.12
2018-06-27T21:18:42.841Z,39.13
2018-06-27T21:21:11.436Z,39.12
2018-06-27T21:23:40.128Z,39.11
2018-06-27T21:26:08.893Z,39.61
2018-06-27T21:28:37.778Z,39.65
2018-06-27T21:31:06.752Z,39.58
2018-06-27T21:33:35.564Z,39.82
2018-06-27T21:36:04.364Z,39.20
2018-06-27T21:38:33.170Z,39.77
2018-06-27T21:41:02.082Z,39.11
2018-06-27T21:43:30.837Z,39.70
2018-06-27T21:45:59.624Z,38.91
2018-06-27T21:48:28.274Z,39.07
2018-06-27T21:50:56.978Z,39.08
2018-06-27T21:53:25.677Z,39.95
2018-06-27T21:55:54.501Z,39.21
2018-06-27T21:58:23.352Z,39.63
2018-06-27T22:00:52.098Z,39.23
2018-06-27T22:03:20.789Z,39.89
2018-06-27T22:05:49.878Z,39.26
2018-06-27T22:08:18.994Z,39.90
2018-06-27T22:10:47.695Z,39.27
2018-06-27T22:13:16.322Z,39.84
2018-06-27T22:15:44.927Z,39.60
2018-06-27T22:18:13.860Z,39.20
2018-06-27T22:20:42.721Z,39.84
2018-06-27T22:23:11.412Z,39.81
2018-06-27T22:25:40.304Z,39.84
2018-06-27T22:28:08.936Z,39.34
2018-06-27T22:30:37.831Z,39.27
2018-06-27T22:33:06.786Z,39.19
2018-06-27T22:35:35.503Z,39.75
2018-06-27T22:38:04.911Z,39.80
2018-06-27T22:40:33.933Z,39.21
2018-06-27T22:43:08.971Z,39.29
2018-06-27T22:45:37.828Z,39.96
2018-06-27T22:48:07.558Z,39.31
2018-06-27T22:50:36.280Z,39.27
2018-06-27T22:53:05.134Z,39.87
2018-06-27T22:55:33.840Z,39.90
2018-06-27T22:58:02.704Z,39.27
2018-06-27T23:00:31.929Z,39.30
2018-06-27T23:03:00.749Z,39.58
2018-06-27T23:05:29.466Z,39.20
2018-06-27T23:07:58.119Z,39.83
2018-06-27T23:10:27.026Z,39.28
2018-06-27T23:12:56.545Z,39.95
2018-06-27T23:15:25.210Z,39.97
2018-06-27T23:17:53.987Z,39.42
2018-06-27T23:20:22.836Z,40.06
2018-06-27T23:22:51.589Z,39.99
2018-06-27T23:25:20.373Z,39.59
2018-06-27T23:27:49.026Z,40.01
2018-06-27T23:30:17.894Z,39.40
2018-06-27T23:32:46.993Z,39.46
2018-06-27T23:35:15.773Z,39.55
2018-06-27T23:37:44.638Z,39.88
2018-06-27T23:40:13.361Z,39.37
2018-06-27T23:42:42.202Z,39.82
2018-06-27T23:45:10.958Z,40.12
2018-06-27T23:47:39.916Z,39.49
2018-06-27T23:50:08.750Z,40.08
2018-06-27T23:52:37.382Z,40.03
2018-06-27T23:55:06.167Z,39.71
2018-06-27T23:57:34.953Z,39.41
